Terminal Aerodrome Forecast
Issued by NWS New Orleans/Baton Rouge, LA

Home | Current Version | Previous Version | Text Only | Print | Product List | Glossary On
Versions: 1 2 3 4 5 6 7 8 9 10 11 12 13 14 15 16 17 18 19 20 21 22 23 24 25 26 27 28 29 30 31 32
000
FTUS44 KLIX 252336
TAFNEW
TAF
KNEW 252336Z 2600/2624 12012KT 3/4SM -RA VCTS BKN040CB BKN050
      OVC060
     FM260400 16009KT P6SM VCSH BKN020 OVC090
     FM261600 15012KT P6SM VCTS BKN025CB=

USA.gov is the U.S. government's official web portal to all federal, state and local government web resources and services.